createdAt,value
2017-09-30T00:03:22.221Z,84.70
2017-09-30T00:08:23.244Z,85.00
2017-09-30T00:13:24.288Z,85.10
2017-09-30T00:18:26.066Z,85.50
2017-09-30T00:23:27.850Z,85.80
2017-09-30T00:28:28.878Z,85.80
2017-09-30T00:33:29.933Z,87.00
2017-09-30T00:38:30.993Z,88.30
2017-09-30T00:43:32.054Z,89.50
2017-09-30T00:48:33.138Z,90.40
2017-09-30T00:53:34.261Z,91.00
2017-09-30T00:58:35.314Z,91.10
2017-09-30T01:03:36.346Z,91.10
2017-09-30T01:08:37.396Z,91.60
2017-09-30T01:13:38.428Z,91.70
2017-09-30T01:18:39.616Z,91.80
2017-09-30T01:23:40.816Z,91.80
2017-09-30T01:28:42.624Z,92.00
2017-09-30T01:33:43.678Z,92.00
2017-09-30T01:38:44.717Z,92.10
2017-09-30T01:43:45.816Z,92.30
2017-09-30T01:48:46.866Z,92.00
2017-09-30T01:53:47.918Z,92.10
2017-09-30T01:58:48.957Z,92.10
2017-09-30T02:03:50.753Z,92.00
2017-09-30T02:08:51.801Z,92.00
2017-09-30T02:13:52.871Z,92.10
2017-09-30T02:18:53.916Z,91.80
2017-09-30T02:23:55.716Z,91.10
2017-09-30T02:28:56.758Z,91.10
2017-09-30T02:33:57.805Z,91.10
2017-09-30T02:38:58.840Z,90.80
2017-09-30T02:43:59.880Z,90.50
2017-09-30T02:49:00.914Z,90.50
2017-09-30T02:54:01.986Z,90.20
2017-09-30T02:59:03.029Z,90.40
2017-09-30T03:04:04.065Z,90.60
2017-09-30T03:09:05.100Z,90.60
2017-09-30T03:14:06.881Z,91.10
2017-09-30T03:19:08.667Z,91.30
2017-09-30T03:24:09.701Z,91.30
2017-09-30T03:29:10.859Z,91.40
2017-09-30T03:34:12.087Z,91.60
2017-09-30T03:39:13.985Z,91.80
2017-09-30T03:44:15.121Z,91.80
2017-09-30T03:49:16.286Z,91.80
2017-09-30T03:54:17.403Z,91.90
2017-09-30T03:59:18.550Z,92.00
2017-09-30T04:04:19.672Z,92.30
2017-09-30T04:09:20.799Z,92.30
2017-09-30T04:14:21.881Z,92.30
2017-09-30T04:19:22.999Z,92.10
2017-09-30T04:24:24.092Z,91.80
2017-09-30T04:29:25.169Z,91.60
2017-09-30T04:34:26.442Z,91.50
2017-09-30T04:39:27.558Z,91.40
2017-09-30T04:44:28.658Z,91.40
2017-09-30T04:49:29.781Z,91.50
2017-09-30T04:54:30.926Z,91.40
2017-09-30T04:59:32.029Z,91.40
2017-09-30T05:04:33.106Z,91.50
2017-09-30T05:09:35.931Z,91.20
2017-09-30T05:14:37.067Z,91.10
2017-09-30T05:19:38.164Z,90.60
2017-09-30T05:24:39.308Z,88.70
2017-09-30T05:29:41.161Z,85.10
2017-09-30T05:34:42.268Z,85.00
2017-09-30T05:39:44.124Z,80.60
2017-09-30T05:44:45.260Z,80.60
2017-09-30T05:49:46.395Z,78.30
2017-09-30T05:54:47.552Z,75.80
2017-09-30T05:59:48.706Z,75.00
2017-09-30T06:04:50.618Z,72.40
2017-09-30T06:09:51.734Z,72.40
2017-09-30T06:14:55.606Z,69.60
2017-09-30T06:19:58.651Z,69.10
2017-09-30T06:24:59.926Z,68.20
2017-09-30T06:30:01.078Z,67.20
2017-09-30T06:35:02.242Z,65.20
2017-09-30T06:40:03.342Z,64.20
2017-09-30T06:45:04.385Z,63.30
2017-09-30T06:50:05.689Z,63.80
2017-09-30T06:55:06.926Z,62.60
2017-09-30T07:00:08.033Z,59.30
2017-09-30T07:05:09.088Z,60.10
2017-09-30T07:10:10.206Z,59.20
2017-09-30T07:15:11.981Z,57.50
2017-09-30T07:20:13.033Z,57.50
2017-09-30T07:25:14.093Z,57.20
2017-09-30T07:30:15.151Z,55.10
2017-09-30T07:35:16.197Z,54.90
2017-09-30T07:40:17.245Z,54.30
2017-09-30T07:45:18.305Z,51.40
2017-09-30T07:50:19.377Z,49.90
2017-09-30T07:55:20.421Z,47.10
2017-09-30T08:00:21.486Z,44.90
2017-09-30T08:05:22.536Z,43.60
2017-09-30T08:10:23.598Z,44.70
2017-09-30T08:15:24.633Z,45.70
2017-09-30T08:20:25.760Z,46.80
2017-09-30T08:25:26.813Z,45.40
2017-09-30T08:30:28.653Z,41.80
2017-09-30T08:35:29.705Z,41.80
2017-09-30T08:40:30.757Z,41.90
2017-09-30T08:45:31.853Z,40.60
2017-09-30T08:50:33.637Z,45.20
2017-09-30T08:55:35.500Z,44.00
2017-09-30T09:00:37.377Z,45.60
2017-09-30T09:05:39.157Z,44.40
2017-09-30T09:10:40.953Z,43.60
2017-09-30T09:15:42.005Z,43.60
2017-09-30T09:20:43.125Z,41.30
2017-09-30T09:25:44.393Z,37.50
2017-09-30T09:30:45.458Z,39.50
2017-09-30T09:35:46.526Z,37.90
2017-09-30T09:40:48.383Z,38.70
2017-09-30T09:45:49.430Z,38.60
2017-09-30T09:50:50.481Z,40.00
2017-09-30T09:55:51.566Z,40.10
2017-09-30T10:00:53.396Z,40.90
2017-09-30T10:05:54.454Z,39.00
2017-09-30T10:10:55.501Z,36.80
2017-09-30T10:15:56.580Z,35.40
2017-09-30T10:20:57.669Z,35.20
2017-09-30T10:25:58.719Z,37.50
2017-09-30T10:30:59.767Z,37.40
2017-09-30T10:36:00.812Z,38.40
2017-09-30T10:41:01.867Z,36.70
2017-09-30T10:46:02.938Z,38.90
2017-09-30T10:51:04.037Z,40.50
2017-09-30T10:56:05.296Z,38.90
2017-09-30T11:01:07.112Z,37.00
2017-09-30T11:06:08.156Z,36.90
2017-09-30T11:11:09.234Z,36.20
2017-09-30T11:16:10.297Z,36.10
2017-09-30T11:21:11.347Z,37.50
2017-09-30T11:26:12.413Z,36.70
2017-09-30T11:31:13.475Z,36.00
2017-09-30T11:36:14.532Z,35.00
2017-09-30T11:41:15.575Z,36.60
2017-09-30T11:46:16.641Z,37.70
2017-09-30T11:51:17.712Z,35.50
2017-09-30T11:56:18.762Z,34.70
2017-09-30T12:01:19.815Z,35.20
2017-09-30T12:06:21.610Z,36.70
2017-09-30T12:11:23.436Z,34.30
2017-09-30T12:16:24.513Z,34.30
2017-09-30T12:21:25.593Z,34.80
2017-09-30T12:26:26.693Z,33.30
2017-09-30T12:31:28.481Z,32.70
2017-09-30T12:36:29.586Z,32.30
2017-09-30T12:41:30.641Z,31.40
2017-09-30T12:46:31.838Z,30.00
2017-09-30T12:51:32.943Z,29.50
2017-09-30T12:56:34.016Z,31.20
2017-09-30T13:01:35.080Z,31.20
2017-09-30T13:06:36.137Z,29.60
2017-09-30T13:11:37.184Z,29.50
2017-09-30T13:16:38.261Z,29.70
2017-09-30T13:21:39.326Z,28.90
2017-09-30T13:26:40.382Z,28.80
2017-09-30T13:31:41.460Z,30.90
2017-09-30T13:36:42.559Z,32.40
2017-09-30T13:41:43.622Z,33.00
2017-09-30T13:46:44.694Z,29.00
2017-09-30T13:51:45.882Z,28.90
2017-09-30T13:56:46.997Z,29.70
2017-09-30T14:01:48.091Z,29.70
2017-09-30T14:06:49.162Z,28.60
2017-09-30T14:11:50.274Z,29.70
2017-09-30T14:16:51.401Z,29.30
2017-09-30T14:21:52.448Z,29.50
2017-09-30T14:26:53.517Z,30.00
2017-09-30T14:31:55.340Z,29.40
2017-09-30T14:36:56.438Z,29.30
2017-09-30T14:41:57.562Z,30.50
2017-09-30T14:46:58.617Z,30.60
2017-09-30T14:51:59.731Z,32.00
2017-09-30T14:57:01.551Z,33.00
2017-09-30T15:02:02.622Z,33.00
2017-09-30T15:07:05.446Z,34.00
2017-09-30T15:12:06.531Z,34.10
2017-09-30T15:17:08.351Z,32.90
2017-09-30T15:22:09.420Z,32.90
2017-09-30T15:27:10.566Z,32.90
2017-09-30T15:32:13.353Z,33.50
2017-09-30T15:37:14.429Z,33.50
2017-09-30T15:42:16.209Z,35.10
2017-09-30T15:47:17.317Z,35.10
2017-09-30T15:52:18.412Z,36.30
2017-09-30T15:57:20.279Z,38.30
2017-09-30T16:02:21.592Z,38.30
2017-09-30T16:07:22.778Z,38.80
2017-09-30T16:12:24.651Z,41.30
2017-09-30T16:17:26.447Z,42.30
2017-09-30T16:22:27.532Z,42.10
2017-09-30T16:27:28.598Z,44.30
2017-09-30T16:32:29.679Z,45.00
2017-09-30T16:37:30.759Z,46.30
2017-09-30T16:42:32.582Z,49.00
2017-09-30T16:47:34.431Z,51.00
2017-09-30T16:52:35.607Z,50.30
2017-09-30T16:57:36.701Z,52.20
2017-09-30T17:02:37.767Z,52.70
2017-09-30T17:07:38.838Z,53.80
2017-09-30T17:12:40.639Z,54.20
2017-09-30T17:17:41.762Z,54.10
2017-09-30T17:22:42.831Z,54.80
2017-09-30T17:27:44.636Z,56.90
2017-09-30T17:32:45.693Z,56.90
2017-09-30T17:37:46.732Z,57.80
2017-09-30T17:42:49.089Z,58.80
2017-09-30T17:47:50.165Z,58.80
2017-09-30T17:52:51.973Z,61.50
2017-09-30T17:57:53.025Z,61.40
2017-09-30T18:02:54.063Z,62.20
2017-09-30T18:07:55.197Z,61.40
2017-09-30T18:12:56.258Z,61.00
2017-09-30T18:17:57.292Z,61.80
2017-09-30T18:22:58.325Z,61.60
2017-09-30T18:27:59.371Z,62.40
2017-09-30T18:33:01.145Z,62.40
2017-09-30T18:38:02.953Z,63.00
2017-09-30T18:43:04.024Z,63.10
2017-09-30T18:48:06.092Z,63.30
2017-09-30T18:53:07.385Z,63.80
2017-09-30T18:58:08.457Z,65.10
2017-09-30T19:03:09.607Z,66.00
2017-09-30T19:08:10.673Z,68.40
2017-09-30T19:13:11.717Z,69.30
2017-09-30T19:18:12.776Z,69.50
2017-09-30T19:23:13.875Z,71.30
2017-09-30T19:28:15.660Z,72.10
2017-09-30T19:33:16.743Z,72.10
2017-09-30T19:38:17.825Z,72.30
2017-09-30T19:43:18.862Z,72.90
2017-09-30T19:48:19.944Z,72.20
2017-09-30T19:53:21.246Z,72.60
2017-09-30T19:58:22.521Z,72.80
2017-09-30T20:03:23.563Z,73.90
2017-09-30T20:08:25.403Z,73.60
2017-09-30T20:13:26.625Z,73.60
2017-09-30T20:18:28.012Z,73.80
2017-09-30T20:23:29.438Z,73.80
2017-09-30T20:28:30.521Z,73.20
2017-09-30T20:33:32.096Z,72.60
2017-09-30T20:38:33.162Z,73.40
2017-09-30T20:43:34.262Z,74.20
2017-09-30T20:48:35.308Z,74.30
2017-09-30T20:53:36.501Z,74.50
2017-09-30T20:58:39.271Z,74.30
2017-09-30T21:03:41.048Z,74.30
2017-09-30T21:08:43.999Z,74.50
2017-09-30T21:13:45.117Z,75.80
2017-09-30T21:18:47.962Z,76.40
2017-09-30T21:23:49.052Z,76.00
2017-09-30T21:28:50.842Z,75.40
2017-09-30T21:33:53.277Z,74.90
2017-09-30T21:38:54.310Z,74.90
2017-09-30T21:43:56.147Z,76.80
2017-09-30T21:48:57.567Z,76.80
2017-09-30T21:53:58.613Z,77.10
2017-09-30T21:59:00.442Z,77.80
2017-09-30T22:04:01.504Z,77.80
2017-09-30T22:09:02.683Z,77.50
2017-09-30T22:14:03.921Z,77.70
2017-09-30T22:19:04.957Z,76.90
2017-09-30T22:24:06.051Z,75.80
2017-09-30T22:29:07.107Z,75.80
2017-09-30T22:34:08.197Z,74.30
2017-09-30T22:39:09.975Z,74.20
2017-09-30T22:44:11.748Z,73.80
2017-09-30T22:49:13.585Z,71.60
2017-09-30T22:54:14.655Z,71.60
2017-09-30T22:59:15.721Z,72.20
2017-09-30T23:04:16.771Z,71.40
2017-09-30T23:09:17.855Z,71.40
2017-09-30T23:14:19.638Z,70.20
2017-09-30T23:19:21.426Z,68.80
2017-09-30T23:24:22.489Z,68.80
2017-09-30T23:29:23.543Z,71.60
2017-09-30T23:34:24.593Z,75.80
2017-09-30T23:39:25.733Z,78.70
2017-09-30T23:44:27.529Z,82.30
2017-09-30T23:49:28.661Z,82.30
2017-09-30T23:54:29.721Z,83.60
2017-09-30T23:59:30.757Z,85.10
